Eleroy, IL

4:46 PM CDT on March 23, 2017 (GMT -0500)
Hawkeye Observatory | | Change Station

Elev 758 ft 42.44 °N, 89.33 °W | Updated 42 seconds ago

Overcast
Overcast
44.1 °F
Feels Like 39 °F
N
9.0
Wind Variable Wind from SSE
Gusts 9.0 mph

Today
High -- | Low -- °F
--% Chance of Precip.
Yesterday
High -- | Low -- °F
Precip. -- in
Pressure 30.11 in
Visibility 10.0 miles
Clouds Overcast 2400 ft
Windchill 39 °F
Dew Point 24.1 °F
Humidity 45%
Rainfall 0.00 in
Snow Depth Not available.
6:56 AM 7:15 PM
Waning Crescent, 20% visible
METAR KFEP 232135Z AUTO 14012KT 10SM OVC024 06/M04 A3011 RMK AO2 T00571040
Pressure 30.11 in
Visibility 10.0 miles
Clouds Overcast 2400 ft
Windchill 39 °F
Dew Point 24.1 °F
Humidity 45%
Rainfall 0.00 in
Snow Depth Not available.
6:56 AM 7:15 PM
Waning Crescent, 20% visible
METAR KFEP 232135Z AUTO 14012KT 10SM OVC024 06/M04 A3011 RMK AO2 T00571040

Get Severe Weather Alerts

Thanks for signing up!

Be on the lookout for a verification email in your inbox.

You'll start receiving the daily forecast at 8 AM.

×

10-Day Weather Forecast

Almanac

Astronomy

Mar. 23, 2017 Rise Set
Actual Time
Civil Twilight
Nautical Twilight
Astronomical Twilight
Moon
Length of Visible Light
Length of Day
Tomorrow will be .
, % of the Moon is Illuminated

Today's Extremes

State Highs State Lows

Community

WunderPhotos

Upload Photos

1,962,540 photos uploaded!

WunderBlog® & News

Nearby

Air Quality

  Air Quality AQ Index Pollutant
Not available.

Snow Depth

Station Depth Elevation

Earthquake Activity

City Distance Mag. Time & Date
Minimum magnitude displayed is 2.5.

Earthquake Activity

City Distance Mag. Time & Date
Minimum magnitude displayed is 2.5.

Coastal Water Temperatures

Place Temperature

Stations

Nearby Weather Stations

Station Location Temp. Windchill Dew Point Humidity Wind Precip. Elev Updated Type
                   

Watches & Warnings

There are currently no watches in effect.